sensor_id;sensor_type;location;lat;lon;timestamp;noise_LAeq;noise_LA_min;noise_LA_max;noise_LA01;noise_LA95
72276;Laerm;61204;49.980;8.358;2023-02-28T00:00:36;55.42;48.87;58.54;;
72276;Laerm;61204;49.980;8.358;2023-02-28T00:03:02;55.79;49.01;57.79;;
72276;Laerm;61204;49.980;8.358;2023-02-28T00:05:28;54.95;48.44;63.84;;
72276;Laerm;61204;49.980;8.358;2023-02-28T00:07:56;54.97;49.07;59.07;;
72276;Laerm;61204;49.980;8.358;2023-02-28T00:10:26;55.11;48.76;59.65;;
72276;Laerm;61204;49.980;8.358;2023-02-28T00:12:54;54.77;47.78;57.57;;
72276;Laerm;61204;49.980;8.358;2023-02-28T00:15:22;55.20;49.48;61.16;;
72276;Laerm;61204;49.980;8.358;2023-02-28T00:17:51;55.29;48.72;57.57;;
72276;Laerm;61204;49.980;8.358;2023-02-28T00:20:17;54.82;47.91;57.26;;
72276;Laerm;61204;49.980;8.358;2023-02-28T00:22:47;55.35;49.47;57.66;;
72276;Laerm;61204;49.980;8.358;2023-02-28T00:25:17;55.16;49.43;57.34;;
72276;Laerm;61204;49.980;8.358;2023-02-28T00:27:46;55.42;50.11;57.99;;
72276;Laerm;61204;49.980;8.358;2023-02-28T00:30:19;54.90;47.24;58.80;;
72276;Laerm;61204;49.980;8.358;2023-02-28T00:32:46;55.46;49.14;57.47;;
72276;Laerm;61204;49.980;8.358;2023-02-28T00:35:12;55.30;47.69;57.84;;
72276;Laerm;61204;49.980;8.358;2023-02-28T00:37:38;55.27;48.27;57.55;;
72276;Laerm;61204;49.980;8.358;2023-02-28T00:40:05;54.94;48.54;57.42;;
72276;Laerm;61204;49.980;8.358;2023-02-28T00:42:33;55.46;48.93;57.62;;
72276;Laerm;61204;49.980;8.358;2023-02-28T00:44:58;54.95;48.15;62.60;;
72276;Laerm;61204;49.980;8.358;2023-02-28T00:47:24;54.50;47.59;61.96;;
72276;Laerm;61204;49.980;8.358;2023-02-28T00:49:49;55.24;47.60;57.69;;
72276;Laerm;61204;49.980;8.358;2023-02-28T00:52:15;55.29;46.87;57.79;;
72276;Laerm;61204;49.980;8.358;2023-02-28T00:54:40;55.12;48.12;57.71;;
72276;Laerm;61204;49.980;8.358;2023-02-28T00:57:06;54.92;48.61;64.92;;
72276;Laerm;61204;49.980;8.358;2023-02-28T00:59:31;55.38;48.60;63.89;;
72276;Laerm;61204;49.980;8.358;2023-02-28T01:01:57;54.91;48.20;60.55;;
72276;Laerm;61204;49.980;8.358;2023-02-28T01:04:22;55.78;48.29;57.93;;
72276;Laerm;61204;49.980;8.358;2023-02-28T01:06:48;55.27;48.95;57.64;;
72276;Laerm;61204;49.980;8.358;2023-02-28T01:09:13;55.17;48.77;64.02;;
72276;Laerm;61204;49.980;8.358;2023-02-28T01:11:39;55.25;48.15;66.35;;
72276;Laerm;61204;49.980;8.358;2023-02-28T01:14:07;55.52;49.10;57.70;;
72276;Laerm;61204;49.980;8.358;2023-02-28T01:16:32;55.32;48.25;57.93;;
72276;Laerm;61204;49.980;8.358;2023-02-28T01:18:58;55.02;47.45;58.67;;
72276;Laerm;61204;49.980;8.358;2023-02-28T01:21:26;55.71;48.49;58.13;;
72276;Laerm;61204;49.980;8.358;2023-02-28T01:23:51;55.25;48.12;65.87;;
72276;Laerm;61204;49.980;8.358;2023-02-28T01:26:20;55.39;47.91;58.09;;
72276;Laerm;61204;49.980;8.358;2023-02-28T01:28:46;55.59;49.05;57.81;;
72276;Laerm;61204;49.980;8.358;2023-02-28T01:31:12;55.69;48.84;57.80;;
72276;Laerm;61204;49.980;8.358;2023-02-28T01:33:38;55.48;49.50;57.99;;
72276;Laerm;61204;49.980;8.358;2023-02-28T01:36:09;55.48;48.58;58.38;;
72276;Laerm;61204;49.980;8.358;2023-02-28T01:38:35;55.44;48.26;57.84;;
72276;Laerm;61204;49.980;8.358;2023-02-28T01:41:05;55.80;47.85;57.85;;
72276;Laerm;61204;49.980;8.358;2023-02-28T01:43:56;55.25;47.39;57.73;;
72276;Laerm;61204;49.980;8.358;2023-02-28T01:46:22;55.93;49.51;57.75;;
72276;Laerm;61204;49.980;8.358;2023-02-28T01:48:56;56.00;50.02;58.01;;
72276;Laerm;61204;49.980;8.358;2023-02-28T01:52:03;56.02;49.77;61.08;;
72276;Laerm;61204;49.980;8.358;2023-02-28T01:54:31;55.79;48.85;58.31;;
72276;Laerm;61204;49.980;8.358;2023-02-28T01:57:10;55.99;49.87;57.90;;
72276;Laerm;61204;49.980;8.358;2023-02-28T01:59:49;55.96;49.21;57.97;;
72276;Laerm;61204;49.980;8.358;2023-02-28T02:02:19;56.16;50.51;57.95;;
72276;Laerm;61204;49.980;8.358;2023-02-28T02:05:20;56.26;49.81;57.97;;
72276;Laerm;61204;49.980;8.358;2023-02-28T02:07:52;56.00;49.74;58.11;;
72276;Laerm;61204;49.980;8.358;2023-02-28T02:10:32;55.83;49.37;57.95;;
72276;Laerm;61204;49.980;8.358;2023-02-28T02:18:52;55.97;47.29;71.45;;
72276;Laerm;61204;49.980;8.358;2023-02-28T02:21:39;55.68;49.79;57.89;;
72276;Laerm;61204;49.980;8.358;2023-02-28T02:24:42;56.07;49.78;58.14;;
72276;Laerm;61204;49.980;8.358;2023-02-28T02:27:26;55.95;49.50;59.18;;
72276;Laerm;61204;49.980;8.358;2023-02-28T02:36:18;55.99;49.96;58.00;;
72276;Laerm;61204;49.980;8.358;2023-02-28T02:38:55;56.33;52.09;58.00;;
72276;Laerm;61204;49.980;8.358;2023-02-28T02:41:47;55.90;49.24;59.12;;
72276;Laerm;61204;49.980;8.358;2023-02-28T02:44:24;55.93;51.00;57.86;;
72276;Laerm;61204;49.980;8.358;2023-02-28T02:47:03;56.39;50.64;58.00;;
72276;Laerm;61204;49.980;8.358;2023-02-28T02:49:33;55.49;46.36;57.77;;
72276;Laerm;61204;49.980;8.358;2023-02-28T02:52:06;55.21;47.74;58.38;;
72276;Laerm;61204;49.980;8.358;2023-02-28T02:54:43;54.59;45.15;58.25;;
72276;Laerm;61204;49.980;8.358;2023-02-28T02:57:16;55.96;50.15;57.96;;
72276;Laerm;61204;49.980;8.358;2023-02-28T02:59:43;55.81;49.27;61.80;;
72276;Laerm;61204;49.980;8.358;2023-02-28T03:02:12;55.96;49.31;58.07;;
72276;Laerm;61204;49.980;8.358;2023-02-28T03:04:48;56.29;50.73;58.11;;
72276;Laerm;61204;49.980;8.358;2023-02-28T03:07:16;56.16;49.91;58.04;;
72276;Laerm;61204;49.980;8.358;2023-02-28T03:09:55;56.07;51.18;58.61;;
72276;Laerm;61204;49.980;8.358;2023-02-28T03:12:33;55.54;49.21;58.06;;
72276;Laerm;61204;49.980;8.358;2023-02-28T03:15:26;55.10;49.01;57.64;;
72276;Laerm;61204;49.980;8.358;2023-02-28T03:23:21;56.75;49.28;67.61;;
72276;Laerm;61204;49.980;8.358;2023-02-28T03:26:24;56.26;48.75;59.68;;
72276;Laerm;61204;49.980;8.358;2023-02-28T03:29:29;55.65;49.42;58.54;;
72276;Laerm;61204;49.980;8.358;2023-02-28T03:32:08;55.22;48.58;58.07;;
72276;Laerm;61204;49.980;8.358;2023-02-28T03:34:53;55.50;48.30;69.46;;
72276;Laerm;61204;49.980;8.358;2023-02-28T03:37:23;54.95;48.72;57.52;;
72276;Laerm;61204;49.980;8.358;2023-02-28T03:40:00;54.71;48.97;57.48;;
72276;Laerm;61204;49.980;8.358;2023-02-28T03:42:31;54.81;48.22;57.05;;
72276;Laerm;61204;49.980;8.358;2023-02-28T03:45:21;55.11;48.59;57.52;;
72276;Laerm;61204;49.980;8.358;2023-02-28T03:47:54;54.91;48.26;57.33;;
72276;Laerm;61204;49.980;8.358;2023-02-28T03:50:27;55.95;48.82;63.90;;
72276;Laerm;61204;49.980;8.358;2023-02-28T03:53:01;55.30;48.22;64.01;;
72276;Laerm;61204;49.980;8.358;2023-02-28T03:55:35;55.06;49.04;56.95;;
72276;Laerm;61204;49.980;8.358;2023-02-28T03:58:18;56.53;49.89;69.75;;
72276;Laerm;61204;49.980;8.358;2023-02-28T04:00:55;58.78;48.89;71.52;;
72276;Laerm;61204;49.980;8.358;2023-02-28T04:03:23;55.32;49.91;62.12;;
72276;Laerm;61204;49.980;8.358;2023-02-28T04:05:53;55.78;50.50;65.20;;
72276;Laerm;61204;49.980;8.358;2023-02-28T04:08:20;59.83;49.64;73.37;;
72276;Laerm;61204;49.980;8.358;2023-02-28T04:11:40;55.87;49.79;63.55;;
72276;Laerm;61204;49.980;8.358;2023-02-28T04:13:40;59.50;48.38;73.87;;
72276;Laerm;61204;49.980;8.358;2023-02-28T04:16:09;57.24;49.90;72.84;;
72276;Laerm;61204;49.980;8.358;2023-02-28T04:18:38;55.52;50.03;64.28;;
72276;Laerm;61204;49.980;8.358;2023-02-28T04:21:05;55.47;49.88;65.01;;
72276;Laerm;61204;49.980;8.358;2023-02-28T04:23:31;57.24;50.24;69.38;;
72276;Laerm;61204;49.980;8.358;2023-02-28T04:25:59;58.49;49.39;68.44;;
72276;Laerm;61204;49.980;8.358;2023-02-28T04:28:25;54.53;49.77;56.69;;
72276;Laerm;61204;49.980;8.358;2023-02-28T04:30:56;54.65;49.93;57.28;;
72276;Laerm;61204;49.980;8.358;2023-02-28T04:33:22;58.89;51.18;71.05;;
72276;Laerm;61204;49.980;8.358;2023-02-28T04:35:47;55.86;51.10;63.64;;
72276;Laerm;61204;49.980;8.358;2023-02-28T04:38:13;54.66;49.89;73.55;;
72276;Laerm;61204;49.980;8.358;2023-02-28T04:40:38;54.89;49.41;56.88;;
72276;Laerm;61204;49.980;8.358;2023-02-28T04:43:04;54.41;49.67;58.84;;
72276;Laerm;61204;49.980;8.358;2023-02-28T04:45:29;54.77;50.38;56.77;;
72276;Laerm;61204;49.980;8.358;2023-02-28T04:47:59;54.38;49.82;59.11;;
72276;Laerm;61204;49.980;8.358;2023-02-28T04:50:25;60.08;49.77;71.53;;
72276;Laerm;61204;49.980;8.358;2023-02-28T04:52:50;54.72;49.94;58.52;;
72276;Laerm;61204;49.980;8.358;2023-02-28T04:55:16;55.85;50.72;63.38;;
72276;Laerm;61204;49.980;8.358;2023-02-28T04:57:41;54.73;50.12;56.86;;
72276;Laerm;61204;49.980;8.358;2023-02-28T05:00:09;54.59;49.83;56.66;;
72276;Laerm;61204;49.980;8.358;2023-02-28T05:02:37;57.20;50.86;65.94;;
72276;Laerm;61204;49.980;8.358;2023-02-28T05:05:04;54.57;50.23;56.48;;
72276;Laerm;61204;49.980;8.358;2023-02-28T05:07:29;54.59;50.38;56.41;;
72276;Laerm;61204;49.980;8.358;2023-02-28T05:09:55;55.05;50.35;70.29;;
72276;Laerm;61204;49.980;8.358;2023-02-28T05:12:20;55.05;50.14;58.42;;
72276;Laerm;61204;49.980;8.358;2023-02-28T05:14:45;54.77;49.60;56.79;;
72276;Laerm;61204;49.980;8.358;2023-02-28T05:17:11;59.02;51.77;70.73;;
72276;Laerm;61204;49.980;8.358;2023-02-28T05:19:36;56.62;52.46;65.36;;
72276;Laerm;61204;49.980;8.358;2023-02-28T05:22:02;54.70;51.29;56.70;;
72276;Laerm;61204;49.980;8.358;2023-02-28T05:24:27;55.78;52.53;61.60;;
72276;Laerm;61204;49.980;8.358;2023-02-28T05:26:55;57.71;51.17;66.78;;
72276;Laerm;61204;49.980;8.358;2023-02-28T05:29:21;58.46;52.17;68.01;;
72276;Laerm;61204;49.980;8.358;2023-02-28T05:31:50;55.73;49.97;62.54;;
72276;Laerm;61204;49.980;8.358;2023-02-28T05:34:16;54.86;50.75;62.32;;
72276;Laerm;61204;49.980;8.358;2023-02-28T05:36:41;55.14;50.65;66.18;;
72276;Laerm;61204;49.980;8.358;2023-02-28T05:39:07;55.02;51.54;64.04;;
72276;Laerm;61204;49.980;8.358;2023-02-28T05:41:38;55.43;51.08;64.29;;
72276;Laerm;61204;49.980;8.358;2023-02-28T05:44:04;54.56;51.31;59.72;;
72276;Laerm;61204;49.980;8.358;2023-02-28T05:46:29;57.85;51.40;67.67;;
72276;Laerm;61204;49.980;8.358;2023-02-28T05:48:55;56.95;51.05;65.96;;
72276;Laerm;61204;49.980;8.358;2023-02-28T05:51:23;57.12;51.49;68.03;;
72276;Laerm;61204;49.980;8.358;2023-02-28T05:53:48;58.05;51.06;72.33;;
72276;Laerm;61204;49.980;8.358;2023-02-28T05:56:15;57.16;51.40;66.84;;
72276;Laerm;61204;49.980;8.358;2023-02-28T05:58:40;54.83;50.52;58.55;;
72276;Laerm;61204;49.980;8.358;2023-02-28T06:04:00;56.07;50.35;65.16;;
72276;Laerm;61204;49.980;8.358;2023-02-28T06:06:26;56.43;50.89;65.14;;
72276;Laerm;61204;49.980;8.358;2023-02-28T06:08:52;55.81;51.53;64.37;;
72276;Laerm;61204;49.980;8.358;2023-02-28T06:11:17;57.81;51.49;67.71;;
72276;Laerm;61204;49.980;8.358;2023-02-28T06:13:45;56.54;52.49;67.50;;
72276;Laerm;61204;49.980;8.358;2023-02-28T06:16:13;56.20;51.44;63.65;;
72276;Laerm;61204;49.980;8.358;2023-02-28T06:18:39;60.00;51.76;72.77;;
72276;Laerm;61204;49.980;8.358;2023-02-28T06:21:04;57.85;51.71;67.97;;
72276;Laerm;61204;49.980;8.358;2023-02-28T06:23:30;54.93;51.56;63.07;;
72276;Laerm;61204;49.980;8.358;2023-02-28T06:25:55;56.24;51.65;65.62;;
72276;Laerm;61204;49.980;8.358;2023-02-28T06:28:25;56.59;51.64;65.59;;
72276;Laerm;61204;49.980;8.358;2023-02-28T06:30:52;58.21;52.80;67.31;;
72276;Laerm;61204;49.980;8.358;2023-02-28T06:33:17;54.76;51.32;60.30;;
72276;Laerm;61204;49.980;8.358;2023-02-28T06:35:52;55.61;51.75;62.94;;
72276;Laerm;61204;49.980;8.358;2023-02-28T06:38:18;56.83;52.72;64.06;;
72276;Laerm;61204;49.980;8.358;2023-02-28T06:40:44;56.23;52.13;62.73;;
72276;Laerm;61204;49.980;8.358;2023-02-28T06:43:10;57.41;52.63;65.75;;
72276;Laerm;61204;49.980;8.358;2023-02-28T06:45:43;56.45;52.35;65.44;;
72276;Laerm;61204;49.980;8.358;2023-02-28T06:48:09;60.30;52.77;71.34;;
72276;Laerm;61204;49.980;8.358;2023-02-28T06:50:35;56.82;52.28;63.78;;
72276;Laerm;61204;49.980;8.358;2023-02-28T06:53:03;57.92;53.18;65.72;;
72276;Laerm;61204;49.980;8.358;2023-02-28T06:55:28;56.56;52.18;65.61;;
72276;Laerm;61204;49.980;8.358;2023-02-28T06:57:54;58.74;53.44;65.16;;
72276;Laerm;61204;49.980;8.358;2023-02-28T07:00:22;59.44;49.26;68.50;;
72276;Laerm;61204;49.980;8.358;2023-02-28T07:02:48;60.19;52.52;70.81;;
72276;Laerm;61204;49.980;8.358;2023-02-28T07:05:13;60.55;52.93;69.45;;
72276;Laerm;61204;49.980;8.358;2023-02-28T07:07:39;58.50;54.16;64.48;;
72276;Laerm;61204;49.980;8.358;2023-02-28T07:10:12;59.21;54.43;72.33;;
72276;Laerm;61204;49.980;8.358;2023-02-28T07:12:38;59.16;53.37;66.49;;
72276;Laerm;61204;49.980;8.358;2023-02-28T07:15:05;60.94;52.21;72.56;;
72276;Laerm;61204;49.980;8.358;2023-02-28T07:17:31;58.19;49.65;67.50;;
72276;Laerm;61204;49.980;8.358;2023-02-28T07:19:56;59.41;50.42;67.84;;
72276;Laerm;61204;49.980;8.358;2023-02-28T07:22:22;58.91;49.13;66.09;;
72276;Laerm;61204;49.980;8.358;2023-02-28T07:24:47;60.10;52.52;68.66;;
72276;Laerm;61204;49.980;8.358;2023-02-28T07:27:15;58.45;49.69;67.83;;
72276;Laerm;61204;49.980;8.358;2023-02-28T07:29:52;56.61;47.99;63.44;;
72276;Laerm;61204;49.980;8.358;2023-02-28T07:32:19;57.16;45.97;73.70;;
72276;Laerm;61204;49.980;8.358;2023-02-28T07:34:45;58.75;49.47;67.10;;
72276;Laerm;61204;49.980;8.358;2023-02-28T07:37:11;59.30;53.86;63.70;;
72276;Laerm;61204;49.980;8.358;2023-02-28T07:39:36;59.59;53.41;74.68;;
72276;Laerm;61204;49.980;8.358;2023-02-28T07:42:06;59.20;53.19;69.11;;
72276;Laerm;61204;49.980;8.358;2023-02-28T07:44:34;59.81;52.64;74.27;;
72276;Laerm;61204;49.980;8.358;2023-02-28T07:47:00;60.75;54.52;76.60;;
72276;Laerm;61204;49.980;8.358;2023-02-28T07:49:26;60.15;53.61;74.25;;
72276;Laerm;61204;49.980;8.358;2023-02-28T07:51:51;60.60;53.78;68.10;;
72276;Laerm;61204;49.980;8.358;2023-02-28T07:54:19;58.32;51.50;65.01;;
72276;Laerm;61204;49.980;8.358;2023-02-28T07:56:44;58.55;50.90;72.54;;
72276;Laerm;61204;49.980;8.358;2023-02-28T07:59:10;59.25;52.99;78.40;;
72276;Laerm;61204;49.980;8.358;2023-02-28T08:01:35;59.26;52.90;73.45;;
72276;Laerm;61204;49.980;8.358;2023-02-28T08:04:01;59.86;53.77;74.99;;
72276;Laerm;61204;49.980;8.358;2023-02-28T08:06:26;59.57;53.51;76.45;;
72276;Laerm;61204;49.980;8.358;2023-02-28T08:08:53;59.74;52.02;71.36;;
72276;Laerm;61204;49.980;8.358;2023-02-28T08:11:18;58.19;52.31;73.31;;
72276;Laerm;61204;49.980;8.358;2023-02-28T08:13:45;59.88;51.81;76.37;;
72276;Laerm;61204;49.980;8.358;2023-02-28T08:16:13;58.39;49.77;78.92;;
72276;Laerm;61204;49.980;8.358;2023-02-28T08:18:43;58.36;50.05;69.38;;
72276;Laerm;61204;49.980;8.358;2023-02-28T08:21:11;57.86;49.17;66.98;;
72276;Laerm;61204;49.980;8.358;2023-02-28T08:23:37;58.76;52.60;71.70;;
72276;Laerm;61204;49.980;8.358;2023-02-28T08:26:03;58.85;52.93;73.89;;
72276;Laerm;61204;49.980;8.358;2023-02-28T08:28:30;57.51;52.46;74.36;;
72276;Laerm;61204;49.980;8.358;2023-02-28T08:30:56;56.63;51.60;72.16;;
72276;Laerm;61204;49.980;8.358;2023-02-28T08:33:24;57.13;52.37;67.54;;
72276;Laerm;61204;49.980;8.358;2023-02-28T08:35:56;57.83;52.47;69.61;;
72276;Laerm;61204;49.980;8.358;2023-02-28T08:38:23;60.54;52.94;77.95;;
72276;Laerm;61204;49.980;8.358;2023-02-28T08:40:49;61.77;54.21;72.37;;
72276;Laerm;61204;49.980;8.358;2023-02-28T08:43:14;59.16;53.11;72.01;;
72276;Laerm;61204;49.980;8.358;2023-02-28T08:45:40;58.10;52.91;68.71;;
72276;Laerm;61204;49.980;8.358;2023-02-28T08:48:05;59.11;54.05;71.58;;
72276;Laerm;61204;49.980;8.358;2023-02-28T08:50:31;62.52;53.23;80.80;;
72276;Laerm;61204;49.980;8.358;2023-02-28T08:52:56;61.90;53.04;82.37;;
72276;Laerm;61204;49.980;8.358;2023-02-28T08:55:22;61.45;53.15;79.90;;
72276;Laerm;61204;49.980;8.358;2023-02-28T08:57:47;60.67;53.75;76.07;;
72276;Laerm;61204;49.980;8.358;2023-02-28T09:00:13;59.26;54.45;66.73;;
72276;Laerm;61204;49.980;8.358;2023-02-28T09:02:40;59.33;51.21;76.91;;
72276;Laerm;61204;49.980;8.358;2023-02-28T09:05:08;60.02;52.36;77.07;;
72276;Laerm;61204;49.980;8.358;2023-02-28T09:07:33;61.49;50.73;87.08;;
72276;Laerm;61204;49.980;8.358;2023-02-28T09:09:59;60.59;49.95;74.29;;
72276;Laerm;61204;49.980;8.358;2023-02-28T09:12:27;57.50;46.69;74.91;;
72276;Laerm;61204;49.980;8.358;2023-02-28T09:14:54;58.59;46.77;81.87;;
72276;Laerm;61204;49.980;8.358;2023-02-28T09:17:22;57.24;48.04;75.26;;
72276;Laerm;61204;49.980;8.358;2023-02-28T09:19:49;58.88;47.95;79.85;;
72276;Laerm;61204;49.980;8.358;2023-02-28T09:22:16;58.40;48.18;78.78;;
72276;Laerm;61204;49.980;8.358;2023-02-28T09:24:42;53.46;46.90;74.77;;
72276;Laerm;61204;49.980;8.358;2023-02-28T09:27:09;55.05;47.33;74.08;;
72276;Laerm;61204;49.980;8.358;2023-02-28T09:29:35;57.22;46.71;69.35;;
72276;Laerm;61204;49.980;8.358;2023-02-28T09:32:01;60.24;47.99;81.11;;
72276;Laerm;61204;49.980;8.358;2023-02-28T09:34:28;58.99;47.82;83.24;;
72276;Laerm;61204;49.980;8.358;2023-02-28T09:36:56;52.29;46.65;65.80;;
72276;Laerm;61204;49.980;8.358;2023-02-28T09:39:22;55.41;46.48;73.25;;
72276;Laerm;61204;49.980;8.358;2023-02-28T09:41:52;53.12;46.46;69.45;;
72276;Laerm;61204;49.980;8.358;2023-02-28T09:49:47;56.51;47.73;76.78;;
72276;Laerm;61204;49.980;8.358;2023-02-28T09:52:28;61.52;48.62;76.35;;
72276;Laerm;61204;49.980;8.358;2023-02-28T09:54:56;60.70;47.41;78.75;;
72276;Laerm;61204;49.980;8.358;2023-02-28T09:57:41;58.78;47.56;78.05;;
72276;Laerm;61204;49.980;8.358;2023-02-28T10:00:24;56.19;47.72;70.14;;
72276;Laerm;61204;49.980;8.358;2023-02-28T10:05:33;62.23;46.52;81.34;;
72276;Laerm;61204;49.980;8.358;2023-02-28T10:11:07;57.51;44.43;73.33;;
72276;Laerm;61204;49.980;8.358;2023-02-28T10:14:00;59.66;45.71;72.75;;
72276;Laerm;61204;49.980;8.358;2023-02-28T10:16:52;57.84;47.69;80.40;;
72276;Laerm;61204;49.980;8.358;2023-02-28T10:19:44;56.59;47.19;74.49;;
72276;Laerm;61204;49.980;8.358;2023-02-28T10:22:25;59.50;46.55;72.69;;
72276;Laerm;61204;49.980;8.358;2023-02-28T10:24:55;59.67;47.82;82.71;;
72276;Laerm;61204;49.980;8.358;2023-02-28T10:27:32;61.34;48.76;82.22;;
72276;Laerm;61204;49.980;8.358;2023-02-28T10:30:01;56.87;49.27;74.97;;
72276;Laerm;61204;49.980;8.358;2023-02-28T10:32:38;55.38;48.73;67.03;;
72276;Laerm;61204;49.980;8.358;2023-02-28T10:35:23;55.05;47.56;75.52;;
72276;Laerm;61204;49.980;8.358;2023-02-28T10:37:56;61.81;48.19;81.76;;
72276;Laerm;61204;49.980;8.358;2023-02-28T10:43:05;57.88;46.44;72.93;;
72276;Laerm;61204;49.980;8.358;2023-02-28T10:45:35;56.89;46.05;74.14;;
72276;Laerm;61204;49.980;8.358;2023-02-28T10:48:40;58.71;46.92;77.47;;
72276;Laerm;61204;49.980;8.358;2023-02-28T10:51:18;57.58;47.44;75.17;;
72276;Laerm;61204;49.980;8.358;2023-02-28T10:53:53;60.33;48.56;79.80;;
72276;Laerm;61204;49.980;8.358;2023-02-28T10:56:23;61.23;48.98;74.15;;
72276;Laerm;61204;49.980;8.358;2023-02-28T11:01:44;58.22;48.58;78.89;;
72276;Laerm;61204;49.980;8.358;2023-02-28T11:04:34;59.92;49.89;79.40;;
72276;Laerm;61204;49.980;8.358;2023-02-28T11:07:22;57.25;47.34;72.96;;
72276;Laerm;61204;49.980;8.358;2023-02-28T11:09:53;60.21;47.52;77.47;;
72276;Laerm;61204;49.980;8.358;2023-02-28T11:12:31;57.68;46.83;74.27;;
72276;Laerm;61204;49.980;8.358;2023-02-28T11:15:18;62.10;48.34;77.46;;
72276;Laerm;61204;49.980;8.358;2023-02-28T11:18:00;56.80;46.42;74.11;;
72276;Laerm;61204;49.980;8.358;2023-02-28T11:20:31;54.48;47.07;69.51;;
72276;Laerm;61204;49.980;8.358;2023-02-28T11:23:00;55.60;45.84;69.92;;
72276;Laerm;61204;49.980;8.358;2023-02-28T11:25:33;54.76;45.62;69.98;;
72276;Laerm;61204;49.980;8.358;2023-02-28T11:28:06;51.82;46.01;65.59;;
72276;Laerm;61204;49.980;8.358;2023-02-28T11:38:48;58.67;47.32;77.44;;
72276;Laerm;61204;49.980;8.358;2023-02-28T11:44:59;59.12;46.94;77.86;;
72276;Laerm;61204;49.980;8.358;2023-02-28T11:47:53;57.40;48.19;76.51;;
72276;Laerm;61204;49.980;8.358;2023-02-28T11:53:02;59.54;45.31;78.18;;
72276;Laerm;61204;49.980;8.358;2023-02-28T11:55:43;54.25;45.01;72.12;;
72276;Laerm;61204;49.980;8.358;2023-02-28T12:06:46;55.92;44.15;71.09;;
72276;Laerm;61204;49.980;8.358;2023-02-28T12:27:00;51.56;45.46;65.79;;
72276;Laerm;61204;49.980;8.358;2023-02-28T12:29:51;58.13;45.15;76.60;;
72276;Laerm;61204;49.980;8.358;2023-02-28T12:32:37;55.94;46.60;71.79;;
72276;Laerm;61204;49.980;8.358;2023-02-28T12:35:19;57.10;45.39;78.62;;
72276;Laerm;61204;49.980;8.358;2023-02-28T12:37:56;54.85;47.73;78.33;;
72276;Laerm;61204;49.980;8.358;2023-02-28T12:40:32;51.13;45.49;61.38;;
72276;Laerm;61204;49.980;8.358;2023-02-28T12:43:04;57.37;44.86;75.75;;
72276;Laerm;61204;49.980;8.358;2023-02-28T12:45:46;55.28;44.71;73.05;;
72276;Laerm;61204;49.980;8.358;2023-02-28T12:48:22;57.63;45.93;72.37;;
72276;Laerm;61204;49.980;8.358;2023-02-28T12:50:50;54.38;44.98;69.67;;
72276;Laerm;61204;49.980;8.358;2023-02-28T12:53:30;58.44;46.78;71.99;;
72276;Laerm;61204;49.980;8.358;2023-02-28T12:56:14;57.42;46.93;80.24;;
72276;Laerm;61204;49.980;8.358;2023-02-28T12:58:51;56.25;46.03;74.00;;
72276;Laerm;61204;49.980;8.358;2023-02-28T13:10:15;54.83;44.25;73.06;;
72276;Laerm;61204;49.980;8.358;2023-02-28T13:12:53;54.90;45.86;67.61;;
72276;Laerm;61204;49.980;8.358;2023-02-28T13:15:26;57.11;46.58;73.09;;
72276;Laerm;61204;49.980;8.358;2023-02-28T13:17:58;57.97;44.39;79.46;;
72276;Laerm;61204;49.980;8.358;2023-02-28T13:20:36;56.45;44.70;77.29;;
72276;Laerm;61204;49.980;8.358;2023-02-28T13:26:22;53.43;44.82;75.57;;
72276;Laerm;61204;49.980;8.358;2023-02-28T13:31:16;49.49;43.11;63.79;;
72276;Laerm;61204;49.980;8.358;2023-02-28T13:38:47;56.82;45.49;72.19;;
72276;Laerm;61204;49.980;8.358;2023-02-28T13:46:37;54.69;42.74;78.20;;
72276;Laerm;61204;49.980;8.358;2023-02-28T14:06:35;59.98;45.86;75.94;;
72276;Laerm;61204;49.980;8.358;2023-02-28T14:11:56;52.07;45.05;68.21;;
72276;Laerm;61204;49.980;8.358;2023-02-28T14:17:16;56.58;45.48;72.63;;
72276;Laerm;61204;49.980;8.358;2023-02-28T14:19:47;56.40;45.06;75.40;;
72276;Laerm;61204;49.980;8.358;2023-02-28T14:22:52;51.87;44.34;65.40;;
72276;Laerm;61204;49.980;8.358;2023-02-28T14:30:55;56.26;45.47;73.63;;
72276;Laerm;61204;49.980;8.358;2023-02-28T14:36:25;55.16;45.74;68.99;;
72276;Laerm;61204;49.980;8.358;2023-02-28T14:38:56;52.02;44.73;73.33;;
72276;Laerm;61204;49.980;8.358;2023-02-28T14:41:28;51.23;44.94;72.16;;
72276;Laerm;61204;49.980;8.358;2023-02-28T14:43:59;57.04;46.54;74.04;;
72276;Laerm;61204;49.980;8.358;2023-02-28T14:46:38;55.49;44.88;74.66;;
72276;Laerm;61204;49.980;8.358;2023-02-28T14:49:06;55.32;44.59;71.93;;
72276;Laerm;61204;49.980;8.358;2023-02-28T14:51:33;56.38;45.68;73.02;;
72276;Laerm;61204;49.980;8.358;2023-02-28T14:54:01;55.81;43.19;67.09;;
72276;Laerm;61204;49.980;8.358;2023-02-28T14:56:37;51.37;44.03;65.02;;
72276;Laerm;61204;49.980;8.358;2023-02-28T14:59:20;49.98;43.79;59.23;;
72276;Laerm;61204;49.980;8.358;2023-02-28T15:01:48;59.07;44.12;73.16;;
72276;Laerm;61204;49.980;8.358;2023-02-28T15:04:26;50.97;42.70;62.97;;
72276;Laerm;61204;49.980;8.358;2023-02-28T15:07:14;51.98;43.09;70.68;;
72276;Laerm;61204;49.980;8.358;2023-02-28T15:09:40;55.84;45.23;73.67;;
72276;Laerm;61204;49.980;8.358;2023-02-28T15:12:07;54.53;45.08;77.06;;
72276;Laerm;61204;49.980;8.358;2023-02-28T15:14:35;50.60;44.48;68.71;;
72276;Laerm;61204;49.980;8.358;2023-02-28T15:17:14;55.67;45.91;71.44;;
72276;Laerm;61204;49.980;8.358;2023-02-28T15:19:50;56.80;45.23;68.06;;
72276;Laerm;61204;49.980;8.358;2023-02-28T15:22:35;55.65;45.39;73.72;;
72276;Laerm;61204;49.980;8.358;2023-02-28T15:25:03;60.09;45.17;72.71;;
72276;Laerm;61204;49.980;8.358;2023-02-28T15:27:33;54.47;44.60;67.28;;
72276;Laerm;61204;49.980;8.358;2023-02-28T15:30:11;55.61;43.02;69.74;;
72276;Laerm;61204;49.980;8.358;2023-02-28T15:32:39;52.09;42.71;71.88;;
72276;Laerm;61204;49.980;8.358;2023-02-28T15:35:31;56.74;44.43;73.86;;
72276;Laerm;61204;49.980;8.358;2023-02-28T15:40:27;55.89;43.91;76.02;;
72276;Laerm;61204;49.980;8.358;2023-02-28T15:46:10;55.05;44.24;66.86;;
72276;Laerm;61204;49.980;8.358;2023-02-28T15:48:57;56.04;44.58;71.07;;
72276;Laerm;61204;49.980;8.358;2023-02-28T15:51:33;50.34;42.57;67.50;;
72276;Laerm;61204;49.980;8.358;2023-02-28T15:54:05;55.05;44.66;69.31;;
72276;Laerm;61204;49.980;8.358;2023-02-28T15:56:39;48.93;40.22;60.60;;
72276;Laerm;61204;49.980;8.358;2023-02-28T15:59:20;55.34;44.36;72.31;;
72276;Laerm;61204;49.980;8.358;2023-02-28T16:01:46;52.73;43.94;68.13;;
72276;Laerm;61204;49.980;8.358;2023-02-28T16:04:18;57.68;41.19;71.54;;
72276;Laerm;61204;49.980;8.358;2023-02-28T16:07:13;54.15;42.76;74.29;;
72276;Laerm;61204;49.980;8.358;2023-02-28T16:09:39;52.46;43.40;61.85;;
72276;Laerm;61204;49.980;8.358;2023-02-28T16:12:04;52.02;43.66;63.83;;
72276;Laerm;61204;49.980;8.358;2023-02-28T16:14:31;49.73;42.87;61.71;;
72276;Laerm;61204;49.980;8.358;2023-02-28T16:17:04;58.35;42.79;73.36;;
72276;Laerm;61204;49.980;8.358;2023-02-28T16:19:34;56.00;41.30;67.88;;
72276;Laerm;61204;49.980;8.358;2023-02-28T16:22:00;53.81;44.42;66.06;;
72276;Laerm;61204;49.980;8.358;2023-02-28T16:24:26;47.87;42.24;62.05;;
72276;Laerm;61204;49.980;8.358;2023-02-28T16:26:55;49.21;42.47;59.46;;